createdAt,value
2023-03-13T00:01:46.691Z,100522.75
2023-03-13T00:04:51.589Z,100523.19
2023-03-13T00:07:54.003Z,100529.94
2023-03-13T00:10:57.539Z,100520.25
2023-03-13T00:14:02.304Z,100511.59
2023-03-13T00:17:05.047Z,100507.16
2023-03-13T00:20:09.161Z,100520.31
2023-03-13T00:23:11.974Z,100508.03
2023-03-13T00:26:20.365Z,100514.44
2023-03-13T00:29:23.247Z,100500.88
2023-03-13T00:32:26.435Z,100505.72
2023-03-13T00:35:30.430Z,100509.06
2023-03-13T00:38:33.704Z,100521.13
2023-03-13T00:41:38.152Z,100515.59
2023-03-13T00:44:41.112Z,100507.81
2023-03-13T00:47:44.686Z,100500.41
2023-03-13T00:50:47.030Z,100499.44
2023-03-13T00:53:50.501Z,100499.00
2023-03-13T00:56:53.052Z,100500.34
2023-03-13T00:59:55.600Z,100497.66
2023-03-13T01:02:58.177Z,100489.72
2023-03-13T01:06:03.500Z,100475.00
2023-03-13T01:09:08.370Z,100470.28
2023-03-13T01:12:12.108Z,100457.78
2023-03-13T01:15:15.141Z,100466.56
2023-03-13T01:18:19.267Z,100468.19
2023-03-13T01:21:23.166Z,100464.37
2023-03-13T01:24:26.628Z,100472.88
2023-03-13T01:27:29.899Z,100464.22
2023-03-13T01:30:33.349Z,100459.72
2023-03-13T01:33:36.335Z,100457.75
2023-03-13T01:36:39.340Z,100451.88
2023-03-13T01:39:42.472Z,100447.06
2023-03-13T01:42:53.121Z,100454.78
2023-03-13T01:46:07.369Z,100456.25
2023-03-13T01:49:17.724Z,100447.00
2023-03-13T01:52:26.267Z,100446.84
2023-03-13T01:55:29.529Z,100445.16
2023-03-13T01:58:32.512Z,100454.09
2023-03-13T02:01:35.940Z,100448.47
2023-03-13T02:04:45.465Z,100445.75
2023-03-13T02:08:11.780Z,100443.72
2023-03-13T02:11:42.666Z,100437.75
2023-03-13T02:14:47.124Z,100440.81
2023-03-13T02:17:50.677Z,100433.72
2023-03-13T02:21:05.374Z,100433.63
2023-03-13T02:24:35.722Z,100434.06
2023-03-13T02:27:40.040Z,100427.25
2023-03-13T02:30:44.701Z,100427.44
2023-03-13T02:33:47.715Z,100431.06
2023-03-13T02:36:52.841Z,100437.13
2023-03-13T02:40:01.039Z,100435.47
2023-03-13T02:43:09.426Z,100430.53
2023-03-13T02:46:19.721Z,100441.13
2023-03-13T02:49:26.484Z,100435.38
2023-03-13T02:52:33.815Z,100432.88
2023-03-13T02:55:41.697Z,100424.50
2023-03-13T02:58:50.518Z,100424.69
2023-03-13T03:01:55.575Z,100435.09
2023-03-13T03:04:58.807Z,100448.75
2023-03-13T03:08:02.122Z,100457.87
2023-03-13T03:11:05.603Z,100457.28
2023-03-13T03:14:11.185Z,100447.31
2023-03-13T03:17:15.182Z,100443.91
2023-03-13T03:20:17.880Z,100456.78
2023-03-13T03:23:20.904Z,100440.28
2023-03-13T03:26:24.036Z,100441.31
2023-03-13T03:29:27.950Z,100452.69
2023-03-13T03:32:32.561Z,100452.22
2023-03-13T03:35:38.524Z,100454.37
2023-03-13T03:38:44.172Z,100448.47
2023-03-13T03:41:49.285Z,100447.91
2023-03-13T03:44:53.058Z,100444.59
2023-03-13T03:47:59.748Z,100435.38
2023-03-13T03:51:03.818Z,100444.25
2023-03-13T03:54:08.641Z,100454.84
2023-03-13T03:57:11.485Z,100449.66
2023-03-13T04:00:16.417Z,100454.16
2023-03-13T04:03:25.192Z,100459.38
2023-03-13T04:06:28.260Z,100470.16
2023-03-13T04:09:32.369Z,100475.50
2023-03-13T04:12:35.520Z,100481.25
2023-03-13T04:15:40.074Z,100471.59
2023-03-13T04:18:44.565Z,100475.97
2023-03-13T04:21:50.737Z,100477.00
2023-03-13T04:24:54.428Z,100478.47
2023-03-13T04:27:57.746Z,100478.00
2023-03-13T04:31:01.362Z,100487.16
2023-03-13T04:34:04.604Z,100495.56
2023-03-13T04:37:07.486Z,100488.50
2023-03-13T04:40:13.379Z,100485.47
2023-03-13T04:43:17.367Z,100482.59
2023-03-13T04:46:21.436Z,100485.69
2023-03-13T04:49:25.196Z,100488.28
2023-03-13T04:52:28.382Z,100485.31
2023-03-13T04:55:31.273Z,100474.25
2023-03-13T04:58:35.451Z,100481.06
2023-03-13T05:01:40.125Z,100488.53
2023-03-13T05:04:43.578Z,100508.84
2023-03-13T05:07:46.710Z,100501.66
2023-03-13T05:10:50.146Z,100501.87
2023-03-13T05:13:53.609Z,100495.00
2023-03-13T05:16:56.317Z,100504.25
2023-03-13T05:20:00.231Z,100512.16
2023-03-13T05:23:03.177Z,100507.69
2023-03-13T05:26:06.640Z,100506.94
2023-03-13T05:29:09.705Z,100518.16
2023-03-13T05:32:12.227Z,100513.16
2023-03-13T05:35:15.226Z,100518.63
2023-03-13T05:38:18.356Z,100528.00
2023-03-13T05:41:21.478Z,100536.19
2023-03-13T05:44:26.995Z,100521.13
2023-03-13T05:47:29.674Z,100524.06
2023-03-13T05:50:32.747Z,100527.09
2023-03-13T05:53:35.591Z,100526.00
2023-03-13T05:56:38.890Z,100517.34
2023-03-13T05:59:42.003Z,100520.78
2023-03-13T06:02:45.068Z,100516.13
2023-03-13T06:05:49.378Z,100527.41
2023-03-13T06:08:53.589Z,100525.47
2023-03-13T06:11:56.602Z,100528.22
2023-03-13T06:14:59.135Z,100529.25
2023-03-13T06:18:02.346Z,100525.22
2023-03-13T06:21:04.611Z,100515.09
2023-03-13T06:24:07.266Z,100519.34
2023-03-13T06:27:09.532Z,100515.47
2023-03-13T06:30:12.588Z,100521.47
2023-03-13T06:33:14.872Z,100527.31
2023-03-13T06:36:17.515Z,100518.94
2023-03-13T06:39:20.004Z,100519.50
2023-03-13T06:42:22.561Z,100522.69
2023-03-13T06:45:25.007Z,100529.69
2023-03-13T06:48:27.657Z,100527.00
2023-03-13T06:51:30.294Z,100528.31
2023-03-13T06:54:32.883Z,100522.31
2023-03-13T06:57:35.428Z,100523.81
2023-03-13T07:00:40.758Z,100528.16
2023-03-13T07:03:44.207Z,100518.75
2023-03-13T07:06:49.100Z,100522.88
2023-03-13T07:09:51.765Z,100511.16
2023-03-13T07:12:56.102Z,100513.53
2023-03-13T07:16:04.526Z,100517.25
2023-03-13T07:19:07.795Z,100527.09
2023-03-13T07:22:10.573Z,100526.69
2023-03-13T07:25:13.479Z,100517.25
2023-03-13T07:28:16.220Z,100523.81
2023-03-13T07:31:21.824Z,100517.78
2023-03-13T07:34:24.943Z,100511.41
2023-03-13T07:37:27.951Z,100503.19
2023-03-13T07:40:30.426Z,100508.94
2023-03-13T07:43:33.825Z,100508.84
2023-03-13T07:46:37.065Z,100510.44
2023-03-13T07:49:43.888Z,100502.47
2023-03-13T07:52:46.313Z,100499.75
2023-03-13T07:56:04.164Z,100491.44
2023-03-13T07:59:07.131Z,100490.75
2023-03-13T08:02:13.916Z,100480.84
2023-03-13T08:05:16.983Z,100489.59
2023-03-13T08:08:20.438Z,100472.94
2023-03-13T08:11:25.239Z,100468.59
2023-03-13T08:14:28.288Z,100463.81
2023-03-13T08:17:30.937Z,100467.69
2023-03-13T08:20:33.200Z,100467.22
2023-03-13T08:23:36.377Z,100457.22
2023-03-13T08:26:41.595Z,100454.03
2023-03-13T08:29:44.060Z,100458.16
2023-03-13T08:32:46.280Z,100453.44
2023-03-13T08:35:49.290Z,100442.38
2023-03-13T08:38:54.352Z,100441.69
2023-03-13T08:41:57.620Z,100440.87
2023-03-13T08:44:59.839Z,100439.53
2023-03-13T08:48:02.461Z,100442.22
2023-03-13T08:51:07.294Z,100433.84
2023-03-13T08:54:09.858Z,100432.53
2023-03-13T08:57:12.130Z,100425.97
2023-03-13T09:00:15.916Z,100421.72
2023-03-13T09:03:18.415Z,100421.47
2023-03-13T09:06:21.639Z,100417.25
2023-03-13T09:09:24.699Z,100401.38
2023-03-13T09:12:31.220Z,100408.97
2023-03-13T09:15:33.919Z,100407.53
2023-03-13T09:18:39.851Z,100411.47
2023-03-13T09:21:42.208Z,100401.72
2023-03-13T09:24:44.974Z,100403.22
2023-03-13T09:27:47.538Z,100399.78
2023-03-13T09:30:51.155Z,100393.41
2023-03-13T09:33:54.245Z,100393.00
2023-03-13T09:36:57.071Z,100388.28
2023-03-13T09:39:59.748Z,100391.12
2023-03-13T09:43:02.847Z,100381.22
2023-03-13T09:46:13.280Z,100382.47
2023-03-13T09:49:54.550Z,100355.25
2023-03-13T09:53:04.483Z,100368.94
2023-03-13T09:56:17.535Z,100362.16
2023-03-13T09:59:27.547Z,100365.41
2023-03-13T10:02:35.480Z,100362.87
2023-03-13T10:05:43.373Z,100358.06
2023-03-13T10:08:45.780Z,100343.50
2023-03-13T10:12:12.661Z,100343.62
2023-03-13T10:15:56.987Z,100334.16
2023-03-13T10:19:08.312Z,100332.41
2023-03-13T10:22:18.665Z,100329.91
2023-03-13T10:25:31.982Z,100338.50
2023-03-13T10:28:34.126Z,100335.59
2023-03-13T10:31:38.240Z,100328.69
2023-03-13T10:34:57.574Z,100328.16
2023-03-13T10:38:04.596Z,100327.03
2023-03-13T10:41:25.440Z,100321.03
2023-03-13T10:44:33.493Z,100331.72
2023-03-13T10:47:37.634Z,100322.34
2023-03-13T10:50:48.938Z,100309.78
2023-03-13T10:53:51.633Z,100316.03
2023-03-13T10:57:18.628Z,100302.16
2023-03-13T11:00:41.269Z,100298.56
2023-03-13T11:03:44.973Z,100293.03
2023-03-13T11:06:53.008Z,100296.06
2023-03-13T11:10:19.009Z,100283.22
2023-03-13T11:13:42.838Z,100273.78
2023-03-13T11:16:51.716Z,100274.69
2023-03-13T11:20:08.250Z,100272.34
2023-03-13T11:23:16.672Z,100259.91
2023-03-13T11:26:41.683Z,100263.75
2023-03-13T11:29:50.000Z,100257.16
2023-03-13T11:32:55.991Z,100256.91
2023-03-13T11:36:20.037Z,100256.53
2023-03-13T11:39:43.237Z,100243.06
2023-03-13T11:43:17.747Z,100233.91
2023-03-13T11:46:59.530Z,100236.03
2023-03-13T11:50:34.307Z,100220.81
2023-03-13T11:54:05.233Z,100218.53
2023-03-13T11:57:15.384Z,100220.63
2023-03-13T12:00:25.607Z,100212.47
2023-03-13T12:03:59.573Z,100198.59
2023-03-13T12:07:29.258Z,100192.78
2023-03-13T12:10:44.007Z,100176.69
2023-03-13T12:14:35.068Z,100183.03
2023-03-13T12:17:43.210Z,100176.34
2023-03-13T12:20:57.652Z,100165.53
2023-03-13T12:24:09.451Z,100143.25
2023-03-13T12:27:19.041Z,100148.47
2023-03-13T12:30:23.392Z,100145.28
2023-03-13T12:33:36.147Z,100147.09
2023-03-13T12:36:46.596Z,100133.66
2023-03-13T12:40:08.326Z,100131.03
2023-03-13T12:43:29.332Z,100129.81
2023-03-13T12:46:35.448Z,100134.25
2023-03-13T12:49:50.160Z,100122.84
2023-03-13T12:53:21.083Z,100112.50
2023-03-13T12:56:32.419Z,100097.06
2023-03-13T12:59:46.777Z,100083.72
2023-03-13T13:03:02.828Z,100086.47
2023-03-13T13:06:05.583Z,100075.34
2023-03-13T13:09:17.517Z,100060.56
2023-03-13T13:12:22.157Z,100061.41
2023-03-13T13:15:29.841Z,100061.41
2023-03-13T13:18:33.860Z,100070.87
2023-03-13T13:21:38.077Z,100077.19
2023-03-13T13:24:53.863Z,100071.72
2023-03-13T13:27:58.766Z,100072.00
2023-03-13T13:31:02.337Z,100067.84
2023-03-13T13:34:05.037Z,100072.28
2023-03-13T13:37:17.656Z,100054.31
2023-03-13T13:40:25.923Z,100059.19
2023-03-13T13:43:37.843Z,100042.59
2023-03-13T13:46:45.478Z,100046.75
2023-03-13T13:50:00.128Z,100028.19
2023-03-13T13:54:08.210Z,100035.47
2023-03-13T13:57:35.624Z,100028.25
2023-03-13T14:00:45.749Z,100019.50
2023-03-13T14:03:51.524Z,100010.59
2023-03-13T14:06:57.360Z,100004.47
2023-03-13T14:10:38.572Z,100004.75
2023-03-13T14:13:41.269Z,100012.00
2023-03-13T14:16:57.091Z,100006.03
2023-03-13T14:19:59.593Z,100004.38
2023-03-13T14:23:07.579Z,100005.47
2023-03-13T14:26:27.758Z,99996.41
2023-03-13T14:29:30.217Z,99998.47
2023-03-13T14:32:32.693Z,100002.91
2023-03-13T14:35:36.523Z,100005.84
2023-03-13T14:38:38.802Z,100002.56
2023-03-13T14:41:47.220Z,99992.59
2023-03-13T14:44:50.366Z,99991.59
2023-03-13T14:47:53.588Z,99991.16
2023-03-13T14:51:15.169Z,99987.06
2023-03-13T14:54:29.521Z,99996.16
2023-03-13T14:57:33.255Z,99999.34
2023-03-13T15:00:41.319Z,99993.37
2023-03-13T15:03:48.162Z,99990.69
2023-03-13T15:07:02.199Z,99971.97
2023-03-13T15:10:21.953Z,99971.19
2023-03-13T15:13:29.407Z,99974.12
2023-03-13T15:16:31.698Z,99975.19
2023-03-13T15:19:34.148Z,99971.09
2023-03-13T15:22:42.554Z,99956.75
2023-03-13T15:25:45.410Z,99960.81
2023-03-13T15:28:47.689Z,99958.28
2023-03-13T15:31:50.254Z,99943.72
2023-03-13T15:34:53.362Z,99945.41
2023-03-13T15:37:57.480Z,99945.25
2023-03-13T15:40:59.664Z,99942.16
2023-03-13T15:44:02.130Z,99938.13
2023-03-13T15:47:04.581Z,99933.75
2023-03-13T15:50:12.717Z,99937.09
2023-03-13T15:53:27.737Z,99931.06
2023-03-13T15:56:34.777Z,99924.87
2023-03-13T15:59:37.276Z,99914.44
2023-03-13T16:02:40.046Z,99920.78
2023-03-13T16:05:43.870Z,99930.59
2023-03-13T16:08:46.742Z,99929.31
2023-03-13T16:11:49.223Z,99931.59
2023-03-13T16:14:51.440Z,99919.72
2023-03-13T16:17:53.889Z,99916.63
2023-03-13T16:20:56.130Z,99911.41
2023-03-13T16:23:58.921Z,99920.28
2023-03-13T16:27:01.205Z,99922.38
2023-03-13T16:30:07.134Z,99912.81
2023-03-13T16:33:10.687Z,99922.78
2023-03-13T16:36:19.033Z,99909.25
2023-03-13T16:39:21.285Z,99904.31
2023-03-13T16:42:23.849Z,99931.87
2023-03-13T16:45:26.321Z,99922.09
2023-03-13T16:48:28.856Z,99931.06
2023-03-13T16:51:31.994Z,99923.56
2023-03-13T16:54:34.768Z,99920.38
2023-03-13T16:57:37.198Z,99913.31
2023-03-13T17:00:39.733Z,99918.25
2023-03-13T17:03:41.996Z,99914.88
2023-03-13T17:06:45.005Z,99916.94
2023-03-13T17:09:47.440Z,99922.69
2023-03-13T17:12:50.431Z,99938.72
2023-03-13T17:15:52.789Z,99924.50
2023-03-13T17:18:56.488Z,99927.13
2023-03-13T17:21:58.872Z,99919.13
2023-03-13T17:25:01.433Z,99921.78
2023-03-13T17:28:03.836Z,99922.00
2023-03-13T17:31:06.584Z,99923.09
2023-03-13T17:34:09.729Z,99922.75
2023-03-13T17:37:15.726Z,99927.53
2023-03-13T17:40:27.121Z,99924.91
2023-03-13T17:43:29.667Z,99916.91
2023-03-13T17:46:40.583Z,99926.72
2023-03-13T17:49:44.352Z,99936.25
2023-03-13T17:52:46.518Z,99935.53
2023-03-13T17:55:48.972Z,99929.19
2023-03-13T17:58:54.635Z,99922.84
2023-03-13T18:01:57.150Z,99924.63
2023-03-13T18:04:59.618Z,99914.81
2023-03-13T18:08:01.981Z,99910.16
2023-03-13T18:11:04.737Z,99918.28
2023-03-13T18:14:07.072Z,99914.47
2023-03-13T18:17:15.362Z,99910.50
2023-03-13T18:20:26.887Z,99905.62
2023-03-13T18:23:29.354Z,99896.91
2023-03-13T18:26:40.185Z,99902.44
2023-03-13T18:29:44.356Z,99903.78
2023-03-13T18:32:46.886Z,99908.25
2023-03-13T18:35:49.529Z,99903.44
2023-03-13T18:38:52.385Z,99899.00
2023-03-13T18:41:54.899Z,99889.66
2023-03-13T18:44:57.250Z,99891.44
2023-03-13T18:47:59.729Z,99877.22
2023-03-13T18:51:02.151Z,99871.28
2023-03-13T18:54:04.763Z,99874.59
2023-03-13T18:57:33.341Z,99868.41
2023-03-13T19:00:35.947Z,99866.28
2023-03-13T19:03:38.154Z,99865.97
2023-03-13T19:06:41.472Z,99859.31
2023-03-13T19:09:46.416Z,99850.44
2023-03-13T19:12:50.462Z,99841.97
2023-03-13T19:15:52.718Z,99837.41
2023-03-13T19:18:58.740Z,99835.03
2023-03-13T19:22:01.056Z,99834.63
2023-03-13T19:25:03.936Z,99834.31
2023-03-13T19:28:09.522Z,99826.00
2023-03-13T19:31:12.077Z,99820.16
2023-03-13T19:34:17.002Z,99814.53
2023-03-13T19:37:20.052Z,99819.78
2023-03-13T19:40:26.050Z,99824.59
2023-03-13T19:43:30.092Z,99818.34
2023-03-13T19:46:33.730Z,99819.78
2023-03-13T19:49:36.390Z,99804.84
2023-03-13T19:52:38.574Z,99810.09
2023-03-13T19:55:41.271Z,99814.25
2023-03-13T19:58:45.424Z,99817.13
2023-03-13T20:01:48.059Z,99813.56
2023-03-13T20:04:50.589Z,99814.28
2023-03-13T20:07:54.178Z,99818.41
2023-03-13T20:10:56.770Z,99820.66
2023-03-13T20:13:59.530Z,99821.22
2023-03-13T20:17:03.577Z,99823.03
2023-03-13T20:20:08.325Z,99820.31
2023-03-13T20:23:10.846Z,99810.78
2023-03-13T20:26:15.663Z,99813.62
2023-03-13T20:29:18.199Z,99813.22
2023-03-13T20:32:20.487Z,99806.00
2023-03-13T20:35:23.084Z,99803.50
2023-03-13T20:38:25.289Z,99802.16
2023-03-13T20:41:31.227Z,99789.66
2023-03-13T20:44:33.698Z,99782.97
2023-03-13T20:47:36.883Z,99781.84
2023-03-13T20:50:43.349Z,99768.88
2023-03-13T20:53:46.425Z,99766.16
2023-03-13T20:56:48.870Z,99755.25
2023-03-13T20:59:52.497Z,99744.16
2023-03-13T21:02:54.860Z,99737.78
2023-03-13T21:05:57.553Z,99739.47
2023-03-13T21:08:59.803Z,99739.81
2023-03-13T21:12:02.372Z,99737.50
2023-03-13T21:15:07.184Z,99725.84
2023-03-13T21:18:09.976Z,99712.78
2023-03-13T21:21:17.096Z,99705.97
2023-03-13T21:24:19.823Z,99715.53
2023-03-13T21:27:22.337Z,99703.37
2023-03-13T21:30:24.924Z,99692.41
2023-03-13T21:33:27.073Z,99694.28
2023-03-13T21:36:29.874Z,99677.97
2023-03-13T21:39:34.012Z,99670.66
2023-03-13T21:42:37.674Z,99675.13
2023-03-13T21:45:39.932Z,99667.50
2023-03-13T21:51:51.112Z,99670.03
2023-03-13T21:54:53.793Z,99665.31
2023-03-13T21:57:55.962Z,99669.19
2023-03-13T22:00:59.431Z,99665.63
2023-03-13T22:04:01.961Z,99657.37
2023-03-13T22:07:04.651Z,99653.38
2023-03-13T22:10:07.520Z,99654.84
2023-03-13T22:13:10.410Z,99654.12
2023-03-13T22:16:13.051Z,99643.47
2023-03-13T22:19:17.322Z,99645.88
2023-03-13T22:22:21.929Z,99642.09
2023-03-13T22:25:24.259Z,99628.91
2023-03-13T22:28:26.901Z,99634.66
2023-03-13T22:31:29.193Z,99626.63
2023-03-13T22:34:32.903Z,99622.72
2023-03-13T22:37:35.947Z,99619.91
2023-03-13T22:40:38.417Z,99616.84
2023-03-13T22:43:40.801Z,99604.41
2023-03-13T22:46:43.848Z,99590.50
2023-03-13T22:49:46.079Z,99589.87
2023-03-13T22:52:48.516Z,99592.16
2023-03-13T22:55:50.700Z,99596.34
2023-03-13T22:58:53.288Z,99589.34
2023-03-13T23:01:55.606Z,99585.16
2023-03-13T23:05:00.991Z,99580.66
2023-03-13T23:08:03.276Z,99577.09
2023-03-13T23:11:06.128Z,99573.44
2023-03-13T23:14:08.304Z,99568.22
2023-03-13T23:17:10.843Z,99571.44
2023-03-13T23:20:13.689Z,99564.59
2023-03-13T23:23:16.228Z,99557.75
2023-03-13T23:26:18.410Z,99563.47
2023-03-13T23:29:20.952Z,99554.78
2023-03-13T23:32:23.249Z,99551.56
2023-03-13T23:35:25.990Z,99548.59
2023-03-13T23:38:28.168Z,99549.34
2023-03-13T23:41:30.841Z,99545.84
2023-03-13T23:44:33.022Z,99546.91
2023-03-13T23:47:35.491Z,99545.94
2023-03-13T23:50:37.831Z,99540.91
2023-03-13T23:53:42.794Z,99544.44
2023-03-13T23:56:45.001Z,99540.12
2023-03-13T23:59:49.122Z,99537.34
